Time;durP1;ratioP1;P1;durP2;ratioP2;P2;SDS_P1;SDS_P2;PMS_P1;PMS_P2;Temp;Humidity;BMP_temperature;BMP_pressure;BME280_temperature;BME280_humidity;BME280_pressure;Samples;Min_cycle;Max_cycle;Signal;HPM_P1;HPM_P2
2022/05/25 00:01:48;;;;;;;2.75;2.55;;;25.70;48.10;;;;;;4871238;29;20456;-63
2022/05/25 00:04:17;;;;;;;2.08;1.83;;;25.70;48.10;;;;;;4872126;29;20053;-63
2022/05/25 00:06:46;;;;;;;1.90;1.80;;;25.70;48.10;;;;;;4871994;29;20143;-63
2022/05/25 00:09:14;;;;;;;2.45;1.70;;;25.70;48.10;;;;;;4871364;29;20116;-63
2022/05/25 00:11:41;;;;;;;1.85;1.75;;;25.70;48.10;;;;;;4871757;29;20101;-63
2022/05/25 00:14:09;;;;;;;2.22;1.98;;;25.70;48.20;;;;;;4871581;29;20445;-63
2022/05/25 00:16:36;;;;;;;2.35;2.15;;;25.70;48.20;;;;;;4870250;29;20713;-63
2022/05/25 00:21:51;;;;;;;2.08;1.98;;;25.70;48.20;;;;;;4871169;29;20362;-63
2022/05/25 00:24:18;;;;;;;2.60;2.00;;;25.70;48.20;;;;;;4872003;29;20342;-63
2022/05/25 00:26:45;;;;;;;1.92;1.70;;;25.70;48.20;;;;;;4871473;29;20049;-63
2022/05/25 00:29:14;;;;;;;2.25;1.90;;;25.60;48.20;;;;;;4867040;29;20049;-62
2022/05/25 00:31:42;;;;;;;2.22;2.10;;;25.70;48.20;;;;;;4871375;29;20064;-65
2022/05/25 00:34:09;;;;;;;1.90;1.80;;;25.60;48.20;;;;;;4871489;29;20385;-63
2022/05/25 00:36:37;;;;;;;1.67;1.58;;;25.60;48.20;;;;;;4871675;29;20049;-62
2022/05/25 00:39:05;;;;;;;2.35;2.15;;;25.60;48.20;;;;;;4871230;29;20085;-62
2022/05/25 00:41:33;;;;;;;2.00;1.90;;;25.60;48.30;;;;;;4871450;29;20052;-62
2022/05/25 00:44:00;;;;;;;2.00;1.90;;;25.60;48.30;;;;;;4871544;29;20133;-62
2022/05/25 00:46:29;;;;;;;1.92;1.83;;;25.60;48.30;;;;;;4871530;29;20114;-63
2022/05/25 00:49:04;;;;;;;1.70;1.60;;;25.60;48.30;;;;;;4871779;29;20057;-62
2022/05/25 00:51:43;;;;;;;1.90;1.80;;;25.60;48.30;;;;;;4870934;29;20048;-65
2022/05/25 00:54:21;;;;;;;2.25;2.05;;;25.60;48.30;;;;;;4871658;29;20056;-65
2022/05/25 00:56:50;;;;;;;1.77;1.67;;;25.60;48.30;;;;;;4871312;29;20459;-62
2022/05/25 00:59:26;;;;;;;1.67;1.58;;;25.60;48.30;;;;;;4871584;29;20136;-63
2022/05/25 01:01:55;;;;;;;2.00;1.85;;;25.60;48.30;;;;;;4867361;29;20105;-62
2022/05/25 01:04:24;;;;;;;2.23;2.07;;;25.60;48.30;;;;;;4874827;29;20053;-62
2022/05/25 01:07:15;;;;;;;2.42;1.67;;;25.60;48.30;;;;;;4874928;29;20045;-62
2022/05/25 01:10:12;;;;;;;1.70;1.60;;;25.60;48.30;;;;;;4874693;29;20521;-62
2022/05/25 01:13:11;;;;;;;1.65;1.55;;;25.60;48.40;;;;;;4875090;29;20109;-62
2022/05/25 01:16:07;;;;;;;1.88;1.77;;;25.60;48.30;;;;;;4874428;29;20482;-62
2022/05/25 01:19:09;;;;;;;1.70;1.60;;;25.60;48.90;;;;;;4886756;29;20049;-62
2022/05/25 01:21:48;;;;;;;1.65;1.55;;;25.60;48.40;;;;;;4873897;29;20056;-65
2022/05/25 01:24:28;;;;;;;1.80;1.70;;;25.60;48.40;;;;;;4875243;29;20144;-64
2022/05/25 01:27:24;;;;;;;2.05;1.95;;;25.60;48.40;;;;;;4872896;29;20053;-64
2022/05/25 01:30:17;;;;;;;1.77;1.67;;;25.50;48.30;;;;;;4886238;29;20455;-64
2022/05/25 01:33:10;;;;;;;1.85;1.75;;;25.50;48.30;;;;;;4869931;29;20041;-64
2022/05/25 01:36:04;;;;;;;1.52;1.42;;;25.50;48.30;;;;;;4874187;29;20385;-65
2022/05/25 01:38:51;;;;;;;1.80;1.63;;;25.50;48.30;;;;;;4885834;29;20049;-65
2022/05/25 01:41:31;;;;;;;1.85;1.75;;;25.50;48.30;;;;;;4872673;29;20576;-64
2022/05/25 01:44:06;;;;;;;1.77;1.67;;;25.50;48.30;;;;;;4874224;29;20585;-63
2022/05/25 01:46:48;;;;;;;2.13;1.90;;;25.50;48.40;;;;;;4873621;29;20057;-63
2022/05/25 01:49:20;;;;;;;2.28;2.08;;;25.50;48.40;;;;;;4874118;29;20460;-63
2022/05/25 01:52:02;;;;;;;1.92;1.83;;;25.50;48.40;;;;;;4873660;29;20049;-63
2022/05/25 01:54:34;;;;;;;1.70;1.60;;;25.50;48.40;;;;;;4874056;29;20056;-63
2022/05/25 01:57:07;;;;;;;1.58;1.48;;;25.50;48.40;;;;;;4874086;29;20049;-63
2022/05/25 01:59:35;;;;;;;2.15;1.98;;;25.50;48.40;;;;;;4886537;29;20109;-63
2022/05/25 02:04:57;;;;;;;1.63;1.52;;;25.40;48.40;;;;;;4869190;29;20052;-63
2022/05/25 02:08:03;;;;;;;1.83;1.70;;;25.40;48.40;;;;;;4873866;29;20487;-64
2022/05/25 02:10:56;;;;;;;1.50;1.40;;;25.50;48.40;;;;;;4873252;29;20135;-64
2022/05/25 02:13:49;;;;;;;1.83;1.63;;;25.40;48.40;;;;;;4873880;29;20049;-63
2022/05/25 02:16:41;;;;;;;2.60;1.58;;;25.40;48.40;;;;;;4873335;29;20558;-63
2022/05/25 02:19:22;;;;;;;2.10;2.00;;;25.40;48.40;;;;;;4874114;29;20406;-63
2022/05/25 02:22:02;;;;;;;1.85;1.75;;;25.40;48.40;;;;;;4873353;29;20128;-63
2022/05/25 02:24:31;;;;;;;;;;;25.40;48.40;;;;;;4873369;29;20679;-64
2022/05/25 02:27:06;;;;;;;2.03;1.92;;;25.40;48.50;;;;;;4873425;29;20317;-63
2022/05/25 02:29:39;;;;;;;1.75;1.63;;;25.40;48.50;;;;;;4873020;29;20387;-63
2022/05/25 02:32:26;;;;;;;1.80;1.70;;;25.40;48.50;;;;;;4873472;29;20053;-63
2022/05/25 02:34:54;;;;;;;1.63;1.52;;;25.40;48.50;;;;;;4869150;29;20510;-63
2022/05/25 02:37:25;;;;;;;1.77;1.67;;;25.40;48.50;;;;;;4873475;29;20071;-63
2022/05/25 02:39:54;;;;;;;1.70;1.60;;;25.40;48.50;;;;;;4872699;29;20421;-63
2022/05/25 02:42:21;;;;;;;1.60;1.50;;;25.40;48.50;;;;;;4873541;29;20566;-63
2022/05/25 02:44:49;;;;;;;1.73;1.63;;;25.40;48.50;;;;;;4872596;29;20467;-63
2022/05/25 02:47:17;;;;;;;1.58;1.48;;;25.40;48.50;;;;;;4872726;29;20478;-63
2022/05/25 02:49:45;;;;;;;1.55;1.55;;;25.40;48.50;;;;;;4873275;29;20105;-63
2022/05/25 02:52:13;;;;;;;1.77;1.33;;;25.40;48.50;;;;;;4872859;29;20469;-63
2022/05/25 02:54:40;;;;;;;1.58;1.48;;;25.40;48.60;;;;;;4872859;29;20126;-63
2022/05/25 02:57:08;;;;;;;1.70;1.60;;;25.40;48.50;;;;;;4872915;29;20104;-63
2022/05/25 02:59:35;;;;;;;1.38;1.38;;;25.40;48.50;;;;;;4872806;29;20057;-64
2022/05/25 03:02:04;;;;;;;1.50;1.40;;;25.40;48.50;;;;;;4873068;29;20669;-63
2022/05/25 03:04:34;;;;;;;1.63;1.52;;;25.40;48.60;;;;;;4872048;29;20494;-63
2022/05/25 03:07:01;;;;;;;1.73;1.63;;;25.40;48.60;;;;;;4882797;29;20049;-63
2022/05/25 03:09:29;;;;;;;1.70;1.60;;;25.30;48.50;;;;;;4872504;29;20053;-63
2022/05/25 03:11:56;;;;;;;1.33;1.27;;;25.40;48.60;;;;;;4872266;29;20053;-63
2022/05/25 03:14:23;;;;;;;1.10;1.10;;;25.40;48.60;;;;;;4872790;29;20144;-63
2022/05/25 03:16:50;;;;;;;1.58;1.50;;;25.40;48.60;;;;;;4871788;29;20052;-63
2022/05/25 03:19:18;;;;;;;1.30;1.30;;;25.40;48.50;;;;;;4872545;29;20120;-63
2022/05/25 03:21:45;;;;;;;1.73;1.63;;;25.40;48.50;;;;;;4872348;29;20049;-63
2022/05/25 03:24:14;;;;;;;1.85;1.75;;;25.40;48.60;;;;;;4871574;29;20143;-63
2022/05/25 03:26:41;;;;;;;2.03;1.92;;;25.40;48.50;;;;;;4872659;29;20116;-63
2022/05/25 03:29:09;;;;;;;1.70;1.60;;;25.40;48.60;;;;;;4871644;29;20463;-63
2022/05/25 03:31:36;;;;;;;1.50;1.40;;;25.40;48.50;;;;;;4872747;29;20366;-63
2022/05/25 03:34:03;;;;;;;1.85;1.75;;;25.40;48.50;;;;;;4870665;29;20053;-63
2022/05/25 03:36:30;;;;;;;1.38;1.38;;;25.30;48.50;;;;;;4869926;29;20478;-63
2022/05/25 03:38:57;;;;;;;1.42;1.33;;;25.40;48.50;;;;;;4866097;29;20062;-63
2022/05/25 03:41:25;;;;;;;1.40;1.30;;;25.40;48.50;;;;;;4870712;29;20359;-63
2022/05/25 03:43:52;;;;;;;1.50;1.50;;;25.30;48.40;;;;;;4871025;29;20080;-63
2022/05/25 03:46:19;;;;;;;1.75;1.65;;;25.40;48.40;;;;;;4872005;29;20270;-63
2022/05/25 03:48:47;;;;;;;1.42;1.33;;;25.40;48.40;;;;;;4870524;29;20113;-63
2022/05/25 03:51:14;;;;;;;1.35;1.33;;;25.40;48.40;;;;;;4870022;29;20049;-63
2022/05/25 03:53:42;;;;;;;2.15;2.05;;;25.40;48.30;;;;;;4870750;29;20619;-63
2022/05/25 03:56:09;;;;;;;1.75;1.65;;;25.40;48.30;;;;;;4871830;29;20053;-63
2022/05/25 03:58:36;;;;;;;1.70;1.60;;;25.40;48.30;;;;;;4871720;29;20416;-63
2022/05/25 04:01:04;;;;;;;2.17;1.60;;;25.40;48.20;;;;;;4871376;29;20049;-63
2022/05/25 04:03:31;;;;;;;1.40;1.30;;;25.40;48.20;;;;;;4871804;29;20180;-63
2022/05/25 04:05:58;;;;;;;1.27;1.17;;;25.40;48.20;;;;;;4871229;29;20498;-63
2022/05/25 04:08:26;;;;;;;1.77;1.45;;;25.50;48.20;;;;;;4872250;29;20298;-63
2022/05/25 04:10:53;;;;;;;1.77;1.67;;;25.50;48.10;;;;;;4866491;29;20587;-63
2022/05/25 04:13:21;;;;;;;1.60;1.50;;;25.50;48.10;;;;;;4871767;29;20467;-63
2022/05/25 04:15:48;;;;;;;1.90;1.80;;;25.50;48.10;;;;;;4871457;29;20049;-63
2022/05/25 04:18:16;;;;;;;1.77;1.67;;;25.60;48.10;;;;;;4871681;29;20059;-63
2022/05/25 04:20:43;;;;;;;1.55;1.45;;;25.60;48.00;;;;;;4871775;29;20379;-63
2022/05/25 04:23:11;;;;;;;1.38;1.33;;;25.60;48.00;;;;;;4871241;29;20053;-63
2022/05/25 04:25:41;;;;;;;1.60;1.50;;;25.60;47.90;;;;;;4871012;29;20044;-63
2022/05/25 04:28:08;;;;;;;1.70;1.60;;;25.60;47.90;;;;;;4871621;29;20057;-63
2022/05/25 04:30:36;;;;;;;1.63;1.52;;;25.60;47.80;;;;;;4868780;29;20315;-63
2022/05/25 04:33:03;;;;;;;1.88;1.77;;;25.70;47.90;;;;;;4862078;29;20053;-63
2022/05/25 04:35:30;;;;;;;2.22;1.48;;;25.70;47.80;;;;;;4870247;29;20053;-63
2022/05/25 04:37:57;;;;;;;1.85;1.75;;;25.70;47.80;;;;;;4875503;29;20562;-63
2022/05/25 04:40:41;;;;;;;1.42;1.35;;;25.70;47.70;;;;;;4874438;29;20414;-63
2022/05/25 04:43:12;;;;;;;1.83;1.38;;;25.80;47.70;;;;;;4872440;29;20542;-62
2022/05/25 04:45:41;;;;;;;1.52;1.50;;;25.80;47.70;;;;;;4874851;29;20430;-62
2022/05/25 04:48:09;;;;;;;1.42;1.42;;;25.80;47.60;;;;;;4888334;29;20045;-62
2022/05/25 04:50:41;;;;;;;1.55;1.45;;;25.80;47.60;;;;;;4878316;29;20080;-63
2022/05/25 04:53:11;;;;;;;1.63;1.52;;;25.80;47.50;;;;;;4871647;29;20049;-64
2022/05/25 04:58:29;;;;;;;2.25;1.70;;;25.90;48.00;;;;;;4867373;29;20502;-65
2022/05/25 05:00:56;;;;;;;2.20;2.00;;;25.90;47.40;;;;;;4866880;29;20173;-64
2022/05/25 05:03:25;;;;;;;1.98;1.88;;;26.00;47.30;;;;;;4868907;29;20090;-64
2022/05/25 05:05:53;;;;;;;2.22;1.85;;;26.00;47.30;;;;;;4869472;29;20064;-66
2022/05/25 05:08:21;;;;;;;1.77;1.67;;;26.00;47.20;;;;;;4870545;29;20049;-64
2022/05/25 05:10:50;;;;;;;1.75;1.65;;;25.90;47.30;;;;;;4865746;29;20268;-65
2022/05/25 05:13:17;;;;;;;1.98;1.88;;;25.80;47.40;;;;;;4859715;29;20136;-64
2022/05/25 05:15:48;;;;;;;2.60;1.80;;;25.70;47.70;;;;;;4867135;29;20291;-65
2022/05/25 05:18:17;;;;;;;2.70;1.90;;;25.50;48.00;;;;;;4872367;29;20057;-63
2022/05/25 05:20:44;;;;;;;3.40;1.77;;;25.40;48.60;;;;;;4866092;29;20399;-67
2022/05/25 05:23:12;;;;;;;1.73;1.63;;;25.10;49.00;;;;;;4867114;29;20081;-63
2022/05/25 05:25:39;;;;;;;2.00;1.90;;;24.80;49.40;;;;;;4862737;29;20783;-65
2022/05/25 05:28:31;;;;;;;3.85;1.95;;;24.50;49.30;;;;;;4862881;29;20053;-66
2022/05/25 05:31:02;;;;;;;2.35;2.15;;;24.10;49.00;;;;;;4883139;29;20517;-66
2022/05/25 05:33:30;;;;;;;4.28;2.53;;;23.80;48.80;;;;;;4867805;29;20184;-65
2022/05/25 05:36:18;;;;;;;2.35;2.15;;;23.40;48.70;;;;;;4866194;29;20581;-66
2022/05/25 05:39:00;;;;;;;2.63;2.40;;;23.00;48.50;;;;;;4868763;29;20041;-63
2022/05/25 05:41:34;;;;;;;6.57;2.35;;;22.60;48.70;;;;;;4868492;29;20061;-64
2022/05/25 05:44:03;;;;;;;2.67;2.40;;;22.30;49.00;;;;;;4862572;29;20413;-65
2022/05/25 05:46:31;;;;;;;3.03;2.63;;;22.00;49.40;;;;;;4860128;29;20992;-64
2022/05/25 05:48:58;;;;;;;3.10;2.80;;;21.70;50.50;;;;;;4864716;29;20052;-64
2022/05/25 05:51:25;;;;;;;3.42;3.13;;;21.40;52.30;;;;;;4864635;29;20554;-63
2022/05/25 05:53:53;;;;;;;5.82;3.47;;;21.20;52.10;;;;;;4865004;29;20113;-64
2022/05/25 05:56:20;;;;;;;5.38;3.67;;;21.00;52.20;;;;;;4864946;29;20064;-65
2022/05/25 05:58:51;;;;;;;4.03;3.15;;;20.90;52.20;;;;;;4864758;29;20049;-66
2022/05/25 06:01:18;;;;;;;4.22;3.78;;;20.70;52.90;;;;;;4866228;29;20083;-65
2022/05/25 06:03:45;;;;;;;6.80;3.63;;;20.60;52.90;;;;;;4862563;29;20056;-66
2022/05/25 06:06:13;;;;;;;7.20;3.72;;;20.50;53.10;;;;;;4864895;29;20053;-65
2022/05/25 06:08:46;;;;;;;8.35;4.28;;;20.40;54.30;;;;;;4867500;29;20084;-68
2022/05/25 06:11:14;;;;;;;6.45;4.47;;;20.30;54.50;;;;;;4867809;29;20059;-66
2022/05/25 06:13:42;;;;;;;4.70;3.50;;;20.20;54.30;;;;;;4869027;29;20140;-66
2022/05/25 06:21:44;;;;;;;7.53;3.92;;;20.00;54.70;;;;;;4869688;29;20305;-66
2022/05/25 06:24:11;;;;;;;7.53;4.05;;;19.90;54.60;;;;;;4881719;29;20553;-67
2022/05/25 06:26:39;;;;;;;6.03;3.40;;;19.80;55.70;;;;;;4868631;29;20061;-67
2022/05/25 06:29:06;;;;;;;4.22;3.55;;;19.80;55.80;;;;;;4865873;29;20546;-66
2022/05/25 06:31:33;;;;;;;4.50;4.10;;;19.70;54.70;;;;;;4881040;29;20089;-66
2022/05/25 06:34:01;;;;;;;8.55;3.88;;;19.70;55.60;;;;;;4868876;29;20045;-69
2022/05/25 06:36:29;;;;;;;4.82;4.05;;;19.60;55.40;;;;;;4868838;29;20052;-66
2022/05/25 06:38:58;;;;;;;5.40;3.90;;;19.60;55.50;;;;;;4866354;29;20059;-64
2022/05/25 06:41:28;;;;;;;7.60;4.45;;;19.50;56.30;;;;;;4865941;29;20083;-64
2022/05/25 06:43:56;;;;;;;3.90;3.60;;;19.50;56.70;;;;;;4867994;29;20053;-64
2022/05/25 06:46:23;;;;;;;5.78;3.20;;;19.50;56.30;;;;;;4870144;29;20169;-63
2022/05/25 06:48:54;;;;;;;4.03;3.10;;;19.40;55.80;;;;;;4861962;29;20066;-66
2022/05/25 06:51:25;;;;;;;4.85;3.35;;;19.40;56.50;;;;;;4862006;29;20517;-61
2022/05/25 06:53:52;;;;;;;4.70;2.85;;;19.30;56.90;;;;;;4878037;29;20064;-64
2022/05/25 06:56:22;;;;;;;3.85;3.00;;;19.30;56.90;;;;;;4866402;29;20081;-65
2022/05/25 06:58:49;;;;;;;4.97;3.67;;;19.30;56.70;;;;;;4865018;29;20500;-64
2022/05/25 07:01:16;;;;;;;3.55;3.08;;;19.30;57.40;;;;;;4863206;29;20099;-65
2022/05/25 07:03:44;;;;;;;3.17;2.80;;;19.30;57.00;;;;;;4866029;29;20055;-64
2022/05/25 07:06:14;;;;;;;5.68;2.88;;;19.20;56.80;;;;;;4868074;29;20076;-64
2022/05/25 07:08:41;;;;;;;3.83;3.05;;;19.20;57.90;;;;;;4868587;29;20068;-64
2022/05/25 07:11:11;;;;;;;5.65;2.75;;;19.10;58.40;;;;;;4865763;29;20048;-66
2022/05/25 07:13:38;;;;;;;3.40;3.10;;;19.10;58.50;;;;;;4868147;29;20049;-64
2022/05/25 07:16:13;;;;;;;5.88;3.10;;;19.20;58.90;;;;;;4868680;29;20125;-64
2022/05/25 07:18:41;;;;;;;3.50;2.60;;;19.20;59.60;;;;;;4861799;29;20478;-66
2022/05/25 07:21:16;;;;;;;3.13;2.83;;;19.20;59.30;;;;;;4880812;29;20109;-62
2022/05/25 07:23:47;;;;;;;4.75;3.03;;;19.20;59.50;;;;;;4866782;29;20060;-64
2022/05/25 07:26:15;;;;;;;3.63;3.28;;;19.20;60.00;;;;;;4865425;29;20081;-67
2022/05/25 07:28:42;;;;;;;5.18;3.55;;;19.30;60.80;;;;;;4861741;29;20053;-64
2022/05/25 07:31:23;;;;;;;5.30;3.33;;;19.30;60.60;;;;;;4866024;29;20501;-65
2022/05/25 07:34:11;;;;;;;5.07;3.42;;;19.40;60.10;;;;;;4867478;29;20227;-68
2022/05/25 07:36:41;;;;;;;4.55;3.75;;;19.50;60.10;;;;;;4877351;29;20065;-67
2022/05/25 07:39:13;;;;;;;3.85;3.50;;;19.50;60.30;;;;;;4866736;29;20045;-64
2022/05/25 07:41:47;;;;;;;7.45;3.42;;;19.60;59.90;;;;;;4864837;29;20071;-65
2022/05/25 07:44:23;;;;;;;5.30;3.15;;;19.60;59.60;;;;;;4865449;29;20101;-66
2022/05/25 07:46:50;;;;;;;7.32;4.43;;;19.60;59.30;;;;;;4867285;29;21946;-65
2022/05/25 07:49:18;;;;;;;3.75;3.40;;;19.60;59.20;;;;;;4863943;29;20064;-66
2022/05/25 07:51:46;;;;;;;5.95;3.40;;;19.60;59.40;;;;;;4860385;29;20932;-65
2022/05/25 07:54:14;;;;;;;3.72;2.92;;;19.70;59.50;;;;;;4878264;29;20057;-69
2022/05/25 07:56:41;;;;;;;3.25;2.85;;;19.70;59.40;;;;;;4866117;29;20056;-68
2022/05/25 07:59:11;;;;;;;4.05;3.08;;;19.80;60.00;;;;;;4866072;29;20056;-65
2022/05/25 08:07:23;;;;;;;3.33;3.03;;;19.70;59.20;;;;;;4867982;29;20056;-65
2022/05/25 08:09:58;;;;;;;5.10;2.83;;;19.70;59.60;;;;;;4862151;29;20758;-65
2022/05/25 08:12:25;;;;;;;3.13;2.92;;;19.70;59.20;;;;;;4868716;29;20041;-64
2022/05/25 08:14:53;;;;;;;3.92;2.97;;;19.70;59.40;;;;;;4865066;29;20406;-62
2022/05/25 08:17:20;;;;;;;3.38;3.03;;;19.70;59.60;;;;;;4863012;29;20072;-61
2022/05/25 08:19:47;;;;;;;2.92;2.60;;;19.70;59.10;;;;;;4864423;29;20112;-61
2022/05/25 08:22:15;;;;;;;6.50;2.78;;;19.70;59.00;;;;;;4862185;29;20273;-60
2022/05/25 08:24:43;;;;;;;3.95;2.38;;;19.70;59.40;;;;;;4866458;29;20080;-60
2022/05/25 08:27:11;;;;;;;4.05;3.00;;;19.70;59.40;;;;;;4866089;29;20088;-61
2022/05/25 08:29:38;;;;;;;3.92;2.83;;;19.70;59.50;;;;;;4865823;29;20068;-63
2022/05/25 08:32:05;;;;;;;3.15;2.90;;;19.80;59.80;;;;;;4864321;29;20519;-62
2022/05/25 08:34:33;;;;;;;2.90;2.70;;;19.80;59.70;;;;;;4861076;29;20145;-62
2022/05/25 08:37:06;;;;;;;2.97;2.78;;;19.80;59.70;;;;;;4867385;29;20094;-62
2022/05/25 08:39:34;;;;;;;3.83;3.35;;;19.80;59.80;;;;;;4868742;29;20386;-60
2022/05/25 08:42:05;;;;;;;3.70;3.03;;;19.90;60.20;;;;;;4862373;29;20060;-62
2022/05/25 08:44:33;;;;;;;4.03;3.03;;;19.90;59.80;;;;;;4862781;29;20045;-62
2022/05/25 08:47:03;;;;;;;3.72;3.30;;;20.00;59.60;;;;;;4864747;29;20295;-62
2022/05/25 08:49:32;;;;;;;4.38;3.30;;;20.00;59.60;;;;;;4865618;29;20506;-63
2022/05/25 08:52:07;;;;;;;3.10;2.90;;;20.00;59.60;;;;;;4867713;29;20754;-62
2022/05/25 08:54:36;;;;;;;4.63;3.00;;;20.00;59.90;;;;;;4872688;29;20076;-62
2022/05/25 08:57:12;;;;;;;7.13;3.53;;;20.00;59.90;;;;;;4875659;29;20049;-64
2022/05/25 09:00:00;;;;;;;4.60;2.90;;;20.10;60.00;;;;;;4862869;29;20064;-62
2022/05/25 09:02:52;;;;;;;4.88;2.97;;;20.10;59.90;;;;;;4879313;29;20054;-61
2022/05/25 09:05:35;;;;;;;5.13;3.10;;;20.10;60.00;;;;;;4868175;29;20407;-61
2022/05/25 09:08:26;;;;;;;3.90;3.25;;;20.20;60.20;;;;;;4864579;29;20061;-59
2022/05/25 09:11:04;;;;;;;3.17;2.90;;;20.30;60.00;;;;;;4876155;29;20068;-61
2022/05/25 09:13:43;;;;;;;3.65;3.35;;;20.30;59.70;;;;;;4861351;29;20045;-61
2022/05/25 09:16:17;;;;;;;3.22;2.60;;;20.30;60.30;;;;;;4863727;29;20055;-61
2022/05/25 09:19:07;;;;;;;4.28;3.30;;;20.40;60.30;;;;;;4863279;29;20084;-59
2022/05/25 09:21:39;;;;;;;5.78;3.30;;;20.40;60.30;;;;;;4864026;29;20056;-62
2022/05/25 09:24:12;;;;;;;5.18;3.28;;;20.50;60.00;;;;;;4867191;29;20116;-61
2022/05/25 09:26:40;;;;;;;3.03;2.83;;;20.50;59.80;;;;;;4863887;29;20053;-61
2022/05/25 09:29:09;;;;;;;3.63;3.03;;;20.50;59.60;;;;;;4871178;29;20179;-61
2022/05/25 09:32:01;;;;;;;2.97;2.78;;;20.50;59.90;;;;;;4862091;29;20278;-61
2022/05/25 09:34:38;;;;;;;4.65;3.30;;;20.50;59.30;;;;;;4867515;29;20053;-61
2022/05/25 09:37:31;;;;;;;3.55;3.25;;;20.50;59.70;;;;;;4867998;29;20110;-62
2022/05/25 09:40:10;;;;;;;3.30;2.97;;;20.60;59.60;;;;;;4866865;29;20101;-61
2022/05/25 09:42:37;;;;;;;3.45;3.15;;;20.50;59.80;;;;;;4866033;29;20048;-62
2022/05/25 09:45:09;;;;;;;3.47;3.17;;;20.60;59.90;;;;;;4867445;29;20049;-60
2022/05/25 09:47:44;;;;;;;8.00;3.80;;;20.60;59.90;;;;;;4867159;29;20044;-61
2022/05/25 09:50:33;;;;;;;4.13;3.72;;;20.60;59.50;;;;;;4866879;29;20059;-60
2022/05/25 09:53:04;;;;;;;3.92;3.53;;;20.70;59.50;;;;;;4882613;29;20124;-60
2022/05/25 09:55:53;;;;;;;4.70;3.80;;;20.80;59.20;;;;;;4869571;29;20085;-64
2022/05/25 09:58:39;;;;;;;3.55;3.25;;;20.80;59.00;;;;;;4863743;29;20053;-68
2022/05/25 10:01:26;;;;;;;3.63;3.28;;;20.80;58.80;;;;;;4868762;29;20105;-70
2022/05/25 10:03:55;;;;;;;4.60;3.55;;;20.70;58.50;;;;;;4869342;29;20056;-70
2022/05/25 10:06:48;;;;;;;3.70;3.40;;;20.80;58.10;;;;;;4884554;29;20117;-68
2022/05/25 10:09:25;;;;;;;3.80;3.50;;;20.80;58.40;;;;;;4870424;29;20045;-70
2022/05/25 10:11:57;;;;;;;5.72;3.08;;;20.80;57.70;;;;;;4873000;29;20061;-70
2022/05/25 10:14:29;;;;;;;3.15;2.92;;;20.70;58.60;;;;;;4871587;29;20100;-69
2022/05/25 10:17:05;;;;;;;4.45;3.70;;;20.70;58.70;;;;;;4882350;29;20057;-68
2022/05/25 10:19:37;;;;;;;4.60;3.35;;;20.70;58.40;;;;;;4867455;29;20512;-68
2022/05/25 10:22:22;;;;;;;5.80;3.40;;;20.70;58.50;;;;;;4867712;29;20053;-68
2022/05/25 10:24:59;;;;;;;4.57;3.58;;;20.70;58.70;;;;;;4869389;29;20057;-68
2022/05/25 10:27:38;;;;;;;6.18;3.83;;;20.70;58.60;;;;;;4860702;29;20199;-67
2022/05/25 10:39:33;;;;;;;3.97;3.10;;;20.80;58.20;;;;;;4867718;29;20478;-70
2022/05/25 10:42:22;;;;;;;3.97;3.25;;;20.80;58.30;;;;;;4870264;29;20061;-69
2022/05/25 10:45:21;;;;;;;5.32;3.38;;;20.80;58.60;;;;;;4865399;29;20097;-68
2022/05/25 10:48:18;;;;;;;4.55;4.15;;;20.70;58.80;;;;;;4866158;29;20061;-65
2022/05/25 10:50:55;;;;;;;3.40;3.10;;;20.60;59.10;;;;;;4866026;29;20056;-69
2022/05/25 10:57:11;;;;;;;3.60;3.30;;;20.60;59.70;;;;;;4865604;29;20549;-71
2022/05/25 11:00:11;;;;;;;4.72;3.10;;;20.60;59.20;;;;;;4862008;29;20049;-70
2022/05/25 11:03:19;;;;;;;3.65;3.35;;;20.60;59.20;;;;;;4864387;29;20061;-68
2022/05/25 11:06:12;;;;;;;4.15;3.28;;;20.60;59.50;;;;;;4866259;29;20049;-69
2022/05/25 11:09:19;;;;;;;4.18;3.42;;;20.60;59.50;;;;;;4864181;29;20053;-66
2022/05/25 11:12:20;;;;;;;4.05;3.75;;;20.60;59.70;;;;;;4867801;29;20061;-71
2022/05/25 11:15:18;;;;;;;4.07;3.67;;;20.60;59.80;;;;;;4868321;29;20045;-68
2022/05/25 11:18:11;;;;;;;3.90;3.50;;;20.60;60.00;;;;;;4866046;29;20045;-65
2022/05/25 11:20:53;;;;;;;4.07;3.70;;;20.60;60.00;;;;;;4864808;29;20041;-64
2022/05/25 11:24:00;;;;;;;6.10;3.65;;;20.70;60.20;;;;;;4867053;29;20057;-63
2022/05/25 11:26:56;;;;;;;3.80;3.45;;;20.70;60.40;;;;;;4866159;29;20538;-66
2022/05/25 11:29:43;;;;;;;4.05;2.97;;;20.80;60.30;;;;;;4864957;29;20081;-67
2022/05/25 11:32:45;;;;;;;3.45;3.25;;;20.80;60.60;;;;;;4858432;29;20084;-66
2022/05/25 11:35:35;;;;;;;5.65;3.78;;;20.90;60.10;;;;;;4875883;29;20191;-71
2022/05/25 11:38:40;;;;;;;3.80;3.27;;;20.90;60.40;;;;;;4867718;29;20053;-70
2022/05/25 11:41:38;;;;;;;5.47;3.33;;;21.00;60.20;;;;;;4867760;29;20800;-68
2022/05/25 11:44:43;;;;;;;3.90;3.60;;;21.10;60.50;;;;;;4861805;29;20081;-63
2022/05/25 11:47:35;;;;;;;5.03;4.03;;;21.10;60.40;;;;;;4876597;29;20533;-68
2022/05/25 11:50:24;;;;;;;4.43;3.63;;;21.20;60.60;;;;;;4866361;29;20049;-66
2022/05/25 11:53:12;;;;;;;4.25;3.85;;;21.30;60.80;;;;;;4864571;29;20072;-68
2022/05/25 11:56:04;;;;;;;4.43;4.05;;;21.30;60.70;;;;;;4865079;29;20057;-65
2022/05/25 11:59:13;;;;;;;5.28;4.20;;;21.40;60.60;;;;;;4865968;29;20517;-68
2022/05/25 12:02:00;;;;;;;3.95;3.58;;;21.50;60.70;;;;;;4860815;29;20052;-65
2022/05/25 12:04:47;;;;;;;7.88;3.75;;;21.50;60.70;;;;;;4860477;29;20497;-63
2022/05/25 12:07:31;;;;;;;6.03;4.47;;;21.60;60.50;;;;;;4864074;29;20093;-63
2022/05/25 12:10:18;;;;;;;3.75;3.45;;;21.70;60.30;;;;;;4866208;29;20044;-62
2022/05/25 12:12:57;;;;;;;4.18;3.78;;;21.80;60.30;;;;;;4866357;29;20505;-65
2022/05/25 12:15:37;;;;;;;7.28;3.58;;;21.80;60.30;;;;;;4861999;29;20053;-65
2022/05/25 12:18:33;;;;;;;4.10;3.70;;;21.80;60.40;;;;;;4862594;29;20100;-66
2022/05/25 12:21:07;;;;;;;5.22;3.85;;;21.80;60.40;;;;;;4865301;29;20565;-67
2022/05/25 12:23:40;;;;;;;4.20;3.80;;;21.80;60.60;;;;;;4863785;29;20117;-69
2022/05/25 12:26:15;;;;;;;3.78;3.45;;;21.90;60.60;;;;;;4865402;29;20057;-66
2022/05/25 12:28:45;;;;;;;3.35;3.13;;;21.90;60.80;;;;;;4862068;29;20110;-64
2022/05/25 12:31:24;;;;;;;4.43;3.65;;;21.90;60.90;;;;;;4864657;29;20057;-64
2022/05/25 12:33:53;;;;;;;6.78;3.92;;;21.90;60.60;;;;;;4861638;29;20132;-67
2022/05/25 12:36:21;;;;;;;3.97;3.58;;;22.00;60.70;;;;;;4860372;29;20125;-69
2022/05/25 12:38:48;;;;;;;4.55;4.00;;;22.00;60.60;;;;;;4860628;29;20089;-67
2022/05/25 12:41:31;;;;;;;3.90;3.60;;;22.00;60.30;;;;;;4863753;29;20064;-67
2022/05/25 12:44:01;;;;;;;5.70;3.75;;;22.00;60.40;;;;;;4861588;29;20129;-65
2022/05/25 12:49:48;;;;;;;4.65;4.25;;;22.10;60.30;;;;;;4864799;29;20053;-65
2022/05/25 12:52:35;;;;;;;;;;;22.10;60.40;;;;;;4863752;29;20053;-65
2022/05/25 12:55:30;;;;;;;4.18;3.83;;;22.10;60.30;;;;;;4872818;29;20357;-64
2022/05/25 12:57:58;;;;;;;3.85;3.55;;;22.10;60.30;;;;;;4863348;29;20053;-63
2022/05/25 13:00:34;;;;;;;3.97;3.60;;;22.10;60.50;;;;;;4868132;29;20091;-63
2022/05/25 13:03:33;;;;;;;4.68;4.03;;;22.10;60.40;;;;;;4870431;29;20053;-65
2022/05/25 13:06:02;;;;;;;5.38;3.67;;;22.20;62.90;;;;;;4861102;29;20045;-63
2022/05/25 13:09:02;;;;;;;3.83;3.53;;;22.40;62.60;;;;;;4868906;29;20494;-65
2022/05/25 13:11:47;;;;;;;6.32;3.85;;;22.50;61.90;;;;;;4869062;29;21169;-64
2022/05/25 13:14:54;;;;;;;3.90;3.42;;;22.70;61.40;;;;;;4868293;29;20418;-67
2022/05/25 13:17:40;;;;;;;3.20;3.00;;;22.90;60.70;;;;;;4881435;29;20145;-68
2022/05/25 13:20:13;;;;;;;4.32;3.72;;;23.00;60.10;;;;;;4865330;29;20106;-70
2022/05/25 13:22:41;;;;;;;3.60;3.30;;;23.00;60.00;;;;;;4867252;29;20045;-63
2022/05/25 13:25:27;;;;;;;3.28;3.08;;;23.10;60.00;;;;;;4870433;29;20049;-66
2022/05/25 13:28:22;;;;;;;3.20;3.00;;;23.20;59.60;;;;;;4869333;29;20490;-64
2022/05/25 13:31:22;;;;;;;3.20;3.00;;;23.20;59.50;;;;;;4877273;29;20060;-73
2022/05/25 13:33:50;;;;;;;3.55;3.00;;;23.30;59.40;;;;;;4869961;29;20064;-68
2022/05/25 13:36:27;;;;;;;3.28;2.97;;;23.20;57.60;;;;;;4869347;29;20049;-69
2022/05/25 13:39:01;;;;;;;4.40;4.00;;;23.10;57.60;;;;;;4863938;29;20083;-65
2022/05/25 13:41:50;;;;;;;3.60;3.30;;;22.90;57.80;;;;;;4868199;29;20045;-65
2022/05/25 13:44:23;;;;;;;3.50;3.20;;;22.80;58.00;;;;;;4866739;29;20148;-66
2022/05/25 13:46:56;;;;;;;3.63;3.42;;;22.70;58.30;;;;;;4868956;29;20144;-69
2022/05/25 13:49:31;;;;;;;4.22;3.83;;;22.60;58.40;;;;;;4867304;29;20116;-68
2022/05/25 13:52:23;;;;;;;4.28;3.58;;;22.50;58.50;;;;;;4881419;29;20053;-66
2022/05/25 13:55:04;;;;;;;4.00;3.30;;;22.40;58.50;;;;;;4866568;29;20056;-67
2022/05/25 13:57:49;;;;;;;3.55;3.13;;;22.30;58.50;;;;;;4869024;29;20051;-68
2022/05/25 14:00:46;;;;;;;4.20;3.42;;;22.30;58.70;;;;;;4879552;29;20100;-67
2022/05/25 14:03:27;;;;;;;4.10;3.70;;;22.20;58.50;;;;;;4875984;29;20483;-65
2022/05/25 14:05:59;;;;;;;4.00;3.70;;;22.20;58.60;;;;;;4868928;29;20148;-69
2022/05/25 14:11:46;;;;;;;3.72;3.42;;;22.00;58.40;;;;;;4866192;29;20056;-66